sensor_id;sensor_type;location;lat;lon;timestamp;temperature;humidity
27940;DHT22;15275;51.716;14.324;2023-04-22T00:00:26;12.40;71.60
27940;DHT22;15275;51.716;14.324;2023-04-22T00:02:53;12.40;71.50
27940;DHT22;15275;51.716;14.324;2023-04-22T00:05:20;12.40;71.50
27940;DHT22;15275;51.716;14.324;2023-04-22T00:07:46;12.30;71.60
27940;DHT22;15275;51.716;14.324;2023-04-22T00:10:12;12.30;71.70
27940;DHT22;15275;51.716;14.324;2023-04-22T00:12:38;12.30;71.70
27940;DHT22;15275;51.716;14.324;2023-04-22T00:15:05;12.30;71.90
27940;DHT22;15275;51.716;14.324;2023-04-22T00:17:32;12.20;72.00
27940;DHT22;15275;51.716;14.324;2023-04-22T00:19:58;12.20;72.00
27940;DHT22;15275;51.716;14.324;2023-04-22T00:22:24;12.10;72.00
27940;DHT22;15275;51.716;14.324;2023-04-22T00:24:50;12.10;72.00
27940;DHT22;15275;51.716;14.324;2023-04-22T00:27:16;12.10;72.00
27940;DHT22;15275;51.716;14.324;2023-04-22T00:29:42;12.10;72.00
27940;DHT22;15275;51.716;14.324;2023-04-22T00:32:07;12.00;72.00
27940;DHT22;15275;51.716;14.324;2023-04-22T00:34:33;12.00;72.00
27940;DHT22;15275;51.716;14.324;2023-04-22T00:36:59;11.90;72.10
27940;DHT22;15275;51.716;14.324;2023-04-22T00:39:25;11.90;72.10
27940;DHT22;15275;51.716;14.324;2023-04-22T00:41:52;11.90;72.20
27940;DHT22;15275;51.716;14.324;2023-04-22T00:44:18;11.90;72.40
27940;DHT22;15275;51.716;14.324;2023-04-22T00:46:44;11.80;72.50
27940;DHT22;15275;51.716;14.324;2023-04-22T00:49:10;11.80;72.40
27940;DHT22;15275;51.716;14.324;2023-04-22T00:51:36;11.80;72.30
27940;DHT22;15275;51.716;14.324;2023-04-22T00:54:02;11.70;72.40
27940;DHT22;15275;51.716;14.324;2023-04-22T00:56:30;11.70;72.40
27940;DHT22;15275;51.716;14.324;2023-04-22T00:58:57;11.70;72.40
27940;DHT22;15275;51.716;14.324;2023-04-22T01:01:23;11.60;72.50
27940;DHT22;15275;51.716;14.324;2023-04-22T01:03:51;11.60;72.60
27940;DHT22;15275;51.716;14.324;2023-04-22T01:06:18;11.60;72.80
27940;DHT22;15275;51.716;14.324;2023-04-22T01:08:47;11.50;73.00
27940;DHT22;15275;51.716;14.324;2023-04-22T01:11:13;11.50;73.10
27940;DHT22;15275;51.716;14.324;2023-04-22T01:13:39;11.50;73.20
27940;DHT22;15275;51.716;14.324;2023-04-22T01:16:07;11.40;73.20
27940;DHT22;15275;51.716;14.324;2023-04-22T01:18:34;11.40;73.30
27940;DHT22;15275;51.716;14.324;2023-04-22T01:21:01;11.30;73.40
27940;DHT22;15275;51.716;14.324;2023-04-22T01:23:28;11.30;73.50
27940;DHT22;15275;51.716;14.324;2023-04-22T01:25:54;11.30;73.40
27940;DHT22;15275;51.716;14.324;2023-04-22T01:28:22;11.20;73.50
27940;DHT22;15275;51.716;14.324;2023-04-22T01:30:48;11.20;73.50
27940;DHT22;15275;51.716;14.324;2023-04-22T01:33:15;11.20;73.70
27940;DHT22;15275;51.716;14.324;2023-04-22T01:35:41;11.10;73.70
27940;DHT22;15275;51.716;14.324;2023-04-22T01:38:08;11.10;73.80
27940;DHT22;15275;51.716;14.324;2023-04-22T01:40:37;11.10;73.90
27940;DHT22;15275;51.716;14.324;2023-04-22T01:43:04;11.00;74.00
27940;DHT22;15275;51.716;14.324;2023-04-22T01:45:30;11.00;74.10
27940;DHT22;15275;51.716;14.324;2023-04-22T01:47:56;11.00;74.10
27940;DHT22;15275;51.716;14.324;2023-04-22T01:50:23;10.90;74.10
27940;DHT22;15275;51.716;14.324;2023-04-22T01:52:49;10.90;74.20
27940;DHT22;15275;51.716;14.324;2023-04-22T01:55:15;10.80;74.30
27940;DHT22;15275;51.716;14.324;2023-04-22T01:57:41;10.80;74.30
27940;DHT22;15275;51.716;14.324;2023-04-22T02:00:08;10.80;74.40
27940;DHT22;15275;51.716;14.324;2023-04-22T02:02:34;10.80;74.40
27940;DHT22;15275;51.716;14.324;2023-04-22T02:05:43;10.70;74.30
27940;DHT22;15275;51.716;14.324;2023-04-22T02:08:09;10.60;74.40
27940;DHT22;15275;51.716;14.324;2023-04-22T02:10:35;10.60;74.40
27940;DHT22;15275;51.716;14.324;2023-04-22T02:13:00;10.60;74.60
27940;DHT22;15275;51.716;14.324;2023-04-22T02:15:26;10.50;74.70
27940;DHT22;15275;51.716;14.324;2023-04-22T02:17:52;10.50;74.70
27940;DHT22;15275;51.716;14.324;2023-04-22T02:20:18;10.50;74.70
27940;DHT22;15275;51.716;14.324;2023-04-22T02:22:44;10.50;74.80
27940;DHT22;15275;51.716;14.324;2023-04-22T02:25:10;10.40;74.80
27940;DHT22;15275;51.716;14.324;2023-04-22T02:27:36;10.40;74.80
27940;DHT22;15275;51.716;14.324;2023-04-22T02:30:04;10.40;74.80
27940;DHT22;15275;51.716;14.324;2023-04-22T02:32:30;10.40;74.90
27940;DHT22;15275;51.716;14.324;2023-04-22T02:34:56;10.30;74.90
27940;DHT22;15275;51.716;14.324;2023-04-22T02:37:22;10.30;74.90
27940;DHT22;15275;51.716;14.324;2023-04-22T02:39:48;10.30;74.90
27940;DHT22;15275;51.716;14.324;2023-04-22T02:42:14;10.20;74.90
27940;DHT22;15275;51.716;14.324;2023-04-22T02:44:40;10.20;75.00
27940;DHT22;15275;51.716;14.324;2023-04-22T02:47:06;10.20;75.00
27940;DHT22;15275;51.716;14.324;2023-04-22T02:49:32;10.20;75.10
27940;DHT22;15275;51.716;14.324;2023-04-22T02:51:58;10.10;75.10
27940;DHT22;15275;51.716;14.324;2023-04-22T02:54:24;10.10;75.10
27940;DHT22;15275;51.716;14.324;2023-04-22T02:56:49;10.10;75.20
27940;DHT22;15275;51.716;14.324;2023-04-22T02:59:15;10.10;75.20
27940;DHT22;15275;51.716;14.324;2023-04-22T03:01:41;10.10;75.20
27940;DHT22;15275;51.716;14.324;2023-04-22T03:04:07;10.10;75.30
27940;DHT22;15275;51.716;14.324;2023-04-22T03:06:32;10.00;75.20
27940;DHT22;15275;51.716;14.324;2023-04-22T03:08:58;10.00;75.30
27940;DHT22;15275;51.716;14.324;2023-04-22T03:11:24;10.00;75.30
27940;DHT22;15275;51.716;14.324;2023-04-22T03:13:50;10.00;75.40
27940;DHT22;15275;51.716;14.324;2023-04-22T03:16:16;10.00;75.40
27940;DHT22;15275;51.716;14.324;2023-04-22T03:18:42;10.00;75.40
27940;DHT22;15275;51.716;14.324;2023-04-22T03:21:08;10.00;75.40
27940;DHT22;15275;51.716;14.324;2023-04-22T03:23:34;9.90;75.50
27940;DHT22;15275;51.716;14.324;2023-04-22T03:26:00;9.90;75.50
27940;DHT22;15275;51.716;14.324;2023-04-22T03:28:25;9.90;75.50
27940;DHT22;15275;51.716;14.324;2023-04-22T03:30:51;9.90;75.60
27940;DHT22;15275;51.716;14.324;2023-04-22T03:33:17;9.90;75.60
27940;DHT22;15275;51.716;14.324;2023-04-22T03:35:43;9.80;75.60
27940;DHT22;15275;51.716;14.324;2023-04-22T03:38:09;9.80;75.60
27940;DHT22;15275;51.716;14.324;2023-04-22T03:40:34;9.80;75.60
27940;DHT22;15275;51.716;14.324;2023-04-22T03:43:00;9.80;75.60
27940;DHT22;15275;51.716;14.324;2023-04-22T03:45:28;9.80;75.70
27940;DHT22;15275;51.716;14.324;2023-04-22T03:47:53;9.80;75.70
27940;DHT22;15275;51.716;14.324;2023-04-22T03:50:19;9.70;75.70
27940;DHT22;15275;51.716;14.324;2023-04-22T03:52:45;9.70;75.80
27940;DHT22;15275;51.716;14.324;2023-04-22T03:55:11;9.70;75.80
27940;DHT22;15275;51.716;14.324;2023-04-22T03:57:37;9.70;75.90
27940;DHT22;15275;51.716;14.324;2023-04-22T04:00:03;9.70;76.00
27940;DHT22;15275;51.716;14.324;2023-04-22T04:02:29;9.60;76.00
27940;DHT22;15275;51.716;14.324;2023-04-22T04:04:55;9.60;76.00
27940;DHT22;15275;51.716;14.324;2023-04-22T04:07:23;9.60;76.10
27940;DHT22;15275;51.716;14.324;2023-04-22T04:09:49;9.60;76.10
27940;DHT22;15275;51.716;14.324;2023-04-22T04:12:15;9.60;76.20
27940;DHT22;15275;51.716;14.324;2023-04-22T04:14:41;9.60;76.20
27940;DHT22;15275;51.716;14.324;2023-04-22T04:17:07;9.60;76.30
27940;DHT22;15275;51.716;14.324;2023-04-22T04:19:38;9.60;76.30
27940;DHT22;15275;51.716;14.324;2023-04-22T04:22:04;9.60;76.40
27940;DHT22;15275;51.716;14.324;2023-04-22T04:24:31;9.60;76.40
27940;DHT22;15275;51.716;14.324;2023-04-22T04:26:57;9.60;76.50
27940;DHT22;15275;51.716;14.324;2023-04-22T04:29:24;9.60;76.70
27940;DHT22;15275;51.716;14.324;2023-04-22T04:31:50;9.60;76.90
27940;DHT22;15275;51.716;14.324;2023-04-22T04:34:15;9.70;77.20
27940;DHT22;15275;51.716;14.324;2023-04-22T04:36:42;9.70;77.20
27940;DHT22;15275;51.716;14.324;2023-04-22T04:39:08;9.70;77.20
27940;DHT22;15275;51.716;14.324;2023-04-22T04:41:34;9.80;77.10
27940;DHT22;15275;51.716;14.324;2023-04-22T04:44:00;9.80;77.30
27940;DHT22;15275;51.716;14.324;2023-04-22T04:46:26;9.80;77.30
27940;DHT22;15275;51.716;14.324;2023-04-22T04:48:54;9.90;77.30
27940;DHT22;15275;51.716;14.324;2023-04-22T04:51:21;9.90;77.50
27940;DHT22;15275;51.716;14.324;2023-04-22T04:53:47;9.90;77.60
27940;DHT22;15275;51.716;14.324;2023-04-22T04:56:13;10.00;77.60
27940;DHT22;15275;51.716;14.324;2023-04-22T04:58:39;10.10;77.50
27940;DHT22;15275;51.716;14.324;2023-04-22T05:01:05;10.10;77.60
27940;DHT22;15275;51.716;14.324;2023-04-22T05:03:31;10.20;77.50
27940;DHT22;15275;51.716;14.324;2023-04-22T05:05:57;10.30;77.60
27940;DHT22;15275;51.716;14.324;2023-04-22T05:08:23;10.30;77.50
27940;DHT22;15275;51.716;14.324;2023-04-22T05:10:48;10.40;77.30
27940;DHT22;15275;51.716;14.324;2023-04-22T05:13:15;10.50;77.40
27940;DHT22;15275;51.716;14.324;2023-04-22T05:15:41;10.60;77.40
27940;DHT22;15275;51.716;14.324;2023-04-22T05:18:07;10.70;77.30
27940;DHT22;15275;51.716;14.324;2023-04-22T05:20:33;10.80;77.40
27940;DHT22;15275;51.716;14.324;2023-04-22T05:22:59;10.90;77.40
27940;DHT22;15275;51.716;14.324;2023-04-22T05:25:25;11.00;77.60
27940;DHT22;15275;51.716;14.324;2023-04-22T05:27:51;11.20;77.70
27940;DHT22;15275;51.716;14.324;2023-04-22T05:30:17;11.40;77.80
27940;DHT22;15275;51.716;14.324;2023-04-22T05:32:42;11.60;78.20
27940;DHT22;15275;51.716;14.324;2023-04-22T05:35:09;11.90;78.20
27940;DHT22;15275;51.716;14.324;2023-04-22T05:37:35;12.20;78.00
27940;DHT22;15275;51.716;14.324;2023-04-22T05:40:01;12.50;77.50
27940;DHT22;15275;51.716;14.324;2023-04-22T05:42:27;12.80;77.40
27940;DHT22;15275;51.716;14.324;2023-04-22T05:44:53;13.10;76.70
27940;DHT22;15275;51.716;14.324;2023-04-22T05:47:19;13.30;75.90
27940;DHT22;15275;51.716;14.324;2023-04-22T05:49:45;13.60;75.30
27940;DHT22;15275;51.716;14.324;2023-04-22T05:52:10;13.80;75.00
27940;DHT22;15275;51.716;14.324;2023-04-22T05:54:36;14.10;74.90
27940;DHT22;15275;51.716;14.324;2023-04-22T05:57:02;14.30;74.70
27940;DHT22;15275;51.716;14.324;2023-04-22T05:59:28;14.60;74.50
27940;DHT22;15275;51.716;14.324;2023-04-22T06:01:54;14.90;74.20
27940;DHT22;15275;51.716;14.324;2023-04-22T06:04:20;15.20;73.60
27940;DHT22;15275;51.716;14.324;2023-04-22T06:06:46;15.50;73.00
27940;DHT22;15275;51.716;14.324;2023-04-22T06:09:12;15.60;72.30
27940;DHT22;15275;51.716;14.324;2023-04-22T06:11:38;15.70;72.10
27940;DHT22;15275;51.716;14.324;2023-04-22T06:14:05;15.80;71.60
27940;DHT22;15275;51.716;14.324;2023-04-22T06:16:31;15.80;71.20
27940;DHT22;15275;51.716;14.324;2023-04-22T06:18:57;15.90;71.20
27940;DHT22;15275;51.716;14.324;2023-04-22T06:21:23;15.90;71.40
27940;DHT22;15275;51.716;14.324;2023-04-22T06:23:49;16.00;70.80
27940;DHT22;15275;51.716;14.324;2023-04-22T06:26:14;16.00;71.10
27940;DHT22;15275;51.716;14.324;2023-04-22T06:28:40;16.10;71.10
27940;DHT22;15275;51.716;14.324;2023-04-22T06:31:06;16.20;70.70
27940;DHT22;15275;51.716;14.324;2023-04-22T06:33:32;16.20;70.60
27940;DHT22;15275;51.716;14.324;2023-04-22T06:35:58;16.30;70.70
27940;DHT22;15275;51.716;14.324;2023-04-22T06:38:24;16.40;70.40
27940;DHT22;15275;51.716;14.324;2023-04-22T06:40:50;16.40;70.10
27940;DHT22;15275;51.716;14.324;2023-04-22T06:43:16;16.50;70.10
27940;DHT22;15275;51.716;14.324;2023-04-22T06:45:42;16.50;70.40
27940;DHT22;15275;51.716;14.324;2023-04-22T06:48:07;16.60;70.00
27940;DHT22;15275;51.716;14.324;2023-04-22T06:50:33;16.60;70.10
27940;DHT22;15275;51.716;14.324;2023-04-22T06:52:59;16.70;70.30
27940;DHT22;15275;51.716;14.324;2023-04-22T06:55:25;16.80;70.10
27940;DHT22;15275;51.716;14.324;2023-04-22T06:57:51;16.90;69.90
27940;DHT22;15275;51.716;14.324;2023-04-22T07:00:17;17.00;70.10
27940;DHT22;15275;51.716;14.324;2023-04-22T07:02:43;17.10;70.10
27940;DHT22;15275;51.716;14.324;2023-04-22T07:05:09;17.20;69.50
27940;DHT22;15275;51.716;14.324;2023-04-22T07:07:35;17.30;69.20
27940;DHT22;15275;51.716;14.324;2023-04-22T07:10:01;17.30;69.20
27940;DHT22;15275;51.716;14.324;2023-04-22T07:12:27;17.40;69.60
27940;DHT22;15275;51.716;14.324;2023-04-22T07:14:52;17.50;69.40
27940;DHT22;15275;51.716;14.324;2023-04-22T07:17:18;17.60;69.50
27940;DHT22;15275;51.716;14.324;2023-04-22T07:19:47;17.70;69.40
27940;DHT22;15275;51.716;14.324;2023-04-22T07:22:13;17.90;68.90
27940;DHT22;15275;51.716;14.324;2023-04-22T07:24:39;18.00;69.30
27940;DHT22;15275;51.716;14.324;2023-04-22T07:27:05;18.10;68.70
27940;DHT22;15275;51.716;14.324;2023-04-22T07:29:31;18.30;69.00
27940;DHT22;15275;51.716;14.324;2023-04-22T07:31:57;18.40;68.90
27940;DHT22;15275;51.716;14.324;2023-04-22T07:34:23;18.50;68.90
27940;DHT22;15275;51.716;14.324;2023-04-22T07:36:52;18.60;68.70
27940;DHT22;15275;51.716;14.324;2023-04-22T07:39:18;18.70;68.40
27940;DHT22;15275;51.716;14.324;2023-04-22T07:41:44;18.80;68.70
27940;DHT22;15275;51.716;14.324;2023-04-22T07:44:10;19.00;68.30
27940;DHT22;15275;51.716;14.324;2023-04-22T07:46:40;19.10;68.30
27940;DHT22;15275;51.716;14.324;2023-04-22T07:49:07;19.20;67.90
27940;DHT22;15275;51.716;14.324;2023-04-22T07:51:32;19.30;67.30
27940;DHT22;15275;51.716;14.324;2023-04-22T07:53:58;19.40;67.30
27940;DHT22;15275;51.716;14.324;2023-04-22T07:56:24;19.50;66.30
27940;DHT22;15275;51.716;14.324;2023-04-22T07:58:51;19.60;66.40
27940;DHT22;15275;51.716;14.324;2023-04-22T08:01:17;19.70;66.50
27940;DHT22;15275;51.716;14.324;2023-04-22T08:03:42;19.80;66.70
27940;DHT22;15275;51.716;14.324;2023-04-22T08:06:08;19.90;66.50
27940;DHT22;15275;51.716;14.324;2023-04-22T08:08:34;20.00;66.20
27940;DHT22;15275;51.716;14.324;2023-04-22T08:11:00;20.10;66.10
27940;DHT22;15275;51.716;14.324;2023-04-22T08:13:26;20.20;65.60
27940;DHT22;15275;51.716;14.324;2023-04-22T08:15:52;20.20;65.40
27940;DHT22;15275;51.716;14.324;2023-04-22T08:18:18;20.40;65.10
27940;DHT22;15275;51.716;14.324;2023-04-22T08:20:45;20.40;65.20
27940;DHT22;15275;51.716;14.324;2023-04-22T08:23:12;20.50;65.50
27940;DHT22;15275;51.716;14.324;2023-04-22T08:25:38;20.60;65.70
27940;DHT22;15275;51.716;14.324;2023-04-22T08:28:03;20.70;65.40
27940;DHT22;15275;51.716;14.324;2023-04-22T08:30:29;20.80;65.70
27940;DHT22;15275;51.716;14.324;2023-04-22T08:32:55;20.90;65.10
27940;DHT22;15275;51.716;14.324;2023-04-22T08:35:21;21.10;64.90
27940;DHT22;15275;51.716;14.324;2023-04-22T08:37:47;21.20;65.10
27940;DHT22;15275;51.716;14.324;2023-04-22T08:40:13;21.30;64.50
27940;DHT22;15275;51.716;14.324;2023-04-22T08:42:39;21.40;64.60
27940;DHT22;15275;51.716;14.324;2023-04-22T08:45:05;21.50;63.90
27940;DHT22;15275;51.716;14.324;2023-04-22T08:47:34;21.60;62.90
27940;DHT22;15275;51.716;14.324;2023-04-22T08:50:01;21.70;62.80
27940;DHT22;15275;51.716;14.324;2023-04-22T08:52:31;21.90;62.90
27940;DHT22;15275;51.716;14.324;2023-04-22T08:54:58;22.00;63.00
27940;DHT22;15275;51.716;14.324;2023-04-22T08:57:25;22.00;63.10
27940;DHT22;15275;51.716;14.324;2023-04-22T08:59:52;22.10;62.10
27940;DHT22;15275;51.716;14.324;2023-04-22T09:02:21;22.20;62.20
27940;DHT22;15275;51.716;14.324;2023-04-22T09:04:50;22.30;62.00
27940;DHT22;15275;51.716;14.324;2023-04-22T09:07:26;22.40;62.10
27940;DHT22;15275;51.716;14.324;2023-04-22T09:09:54;22.50;58.80
27940;DHT22;15275;51.716;14.324;2023-04-22T09:12:20;22.50;61.90
27940;DHT22;15275;51.716;14.324;2023-04-22T09:14:47;22.60;60.80
27940;DHT22;15275;51.716;14.324;2023-04-22T09:17:17;22.70;60.80
27940;DHT22;15275;51.716;14.324;2023-04-22T09:19:44;22.80;60.50
27940;DHT22;15275;51.716;14.324;2023-04-22T09:22:12;22.80;60.90
27940;DHT22;15275;51.716;14.324;2023-04-22T09:24:48;22.90;60.10
27940;DHT22;15275;51.716;14.324;2023-04-22T09:27:18;23.00;59.20
27940;DHT22;15275;51.716;14.324;2023-04-22T09:29:47;23.10;61.20
27940;DHT22;15275;51.716;14.324;2023-04-22T09:32:17;23.20;60.10
27940;DHT22;15275;51.716;14.324;2023-04-22T09:37:24;23.30;57.90
27940;DHT22;15275;51.716;14.324;2023-04-22T09:39:50;23.40;59.30
27940;DHT22;15275;51.716;14.324;2023-04-22T09:42:17;23.50;60.00
27940;DHT22;15275;51.716;14.324;2023-04-22T09:44:46;23.50;59.90
27940;DHT22;15275;51.716;14.324;2023-04-22T09:47:13;23.60;59.00
27940;DHT22;15275;51.716;14.324;2023-04-22T09:49:39;23.60;59.50
27940;DHT22;15275;51.716;14.324;2023-04-22T09:52:10;23.70;59.20
27940;DHT22;15275;51.716;14.324;2023-04-22T09:54:52;23.80;58.80
27940;DHT22;15275;51.716;14.324;2023-04-22T09:57:19;23.80;55.90
27940;DHT22;15275;51.716;14.324;2023-04-22T09:59:47;23.80;57.50
27940;DHT22;15275;51.716;14.324;2023-04-22T10:02:15;23.90;57.30
27940;DHT22;15275;51.716;14.324;2023-04-22T10:04:41;23.90;57.30
27940;DHT22;15275;51.716;14.324;2023-04-22T10:07:07;23.90;57.50
27940;DHT22;15275;51.716;14.324;2023-04-22T10:09:33;23.90;57.20
27940;DHT22;15275;51.716;14.324;2023-04-22T10:12:00;24.00;57.30
27940;DHT22;15275;51.716;14.324;2023-04-22T10:14:26;24.00;56.50
27940;DHT22;15275;51.716;14.324;2023-04-22T10:16:58;24.00;57.40
27940;DHT22;15275;51.716;14.324;2023-04-22T10:19:25;24.10;56.30
27940;DHT22;15275;51.716;14.324;2023-04-22T10:21:55;24.10;56.10
27940;DHT22;15275;51.716;14.324;2023-04-22T10:24:25;24.20;56.70
27940;DHT22;15275;51.716;14.324;2023-04-22T10:27:01;24.20;56.60
27940;DHT22;15275;51.716;14.324;2023-04-22T10:29:36;24.20;54.20
27940;DHT22;15275;51.716;14.324;2023-04-22T10:34:41;24.30;54.30
27940;DHT22;15275;51.716;14.324;2023-04-22T10:37:10;24.30;56.30
27940;DHT22;15275;51.716;14.324;2023-04-22T10:39:37;24.30;55.60
27940;DHT22;15275;51.716;14.324;2023-04-22T10:42:08;24.40;55.30
27940;DHT22;15275;51.716;14.324;2023-04-22T10:44:52;24.40;55.50
27940;DHT22;15275;51.716;14.324;2023-04-22T10:47:36;24.40;53.20
27940;DHT22;15275;51.716;14.324;2023-04-22T10:52:39;24.50;54.20
27940;DHT22;15275;51.716;14.324;2023-04-22T10:55:06;24.60;55.20
27940;DHT22;15275;51.716;14.324;2023-04-22T10:57:40;24.60;56.00
27940;DHT22;15275;51.716;14.324;2023-04-22T11:03:10;24.70;51.90
27940;DHT22;15275;51.716;14.324;2023-04-22T11:05:38;24.70;52.00
27940;DHT22;15275;51.716;14.324;2023-04-22T11:08:18;24.70;55.70
27940;DHT22;15275;51.716;14.324;2023-04-22T11:10:51;24.80;55.10
27940;DHT22;15275;51.716;14.324;2023-04-22T11:13:20;24.80;53.70
27940;DHT22;15275;51.716;14.324;2023-04-22T11:15:53;24.90;55.80
27940;DHT22;15275;51.716;14.324;2023-04-22T11:18:25;24.90;54.30
27940;DHT22;15275;51.716;14.324;2023-04-22T11:20:52;25.00;54.30
27940;DHT22;15275;51.716;14.324;2023-04-22T11:23:25;25.00;54.70
27940;DHT22;15275;51.716;14.324;2023-04-22T11:25:56;25.10;51.10
27940;DHT22;15275;51.716;14.324;2023-04-22T11:28:23;25.10;52.70
27940;DHT22;15275;51.716;14.324;2023-04-22T11:30:50;25.10;53.50
27940;DHT22;15275;51.716;14.324;2023-04-22T11:33:18;25.10;54.00
27940;DHT22;15275;51.716;14.324;2023-04-22T11:35:44;25.10;53.60
27940;DHT22;15275;51.716;14.324;2023-04-22T11:38:10;25.10;53.60
27940;DHT22;15275;51.716;14.324;2023-04-22T11:40:38;25.10;52.60
27940;DHT22;15275;51.716;14.324;2023-04-22T11:43:06;25.20;52.50
27940;DHT22;15275;51.716;14.324;2023-04-22T11:45:35;25.10;52.60
27940;DHT22;15275;51.716;14.324;2023-04-22T11:48:04;25.20;53.30
27940;DHT22;15275;51.716;14.324;2023-04-22T11:50:35;25.10;52.60
27940;DHT22;15275;51.716;14.324;2023-04-22T11:53:13;25.20;52.70
27940;DHT22;15275;51.716;14.324;2023-04-22T11:55:41;25.20;53.10
27940;DHT22;15275;51.716;14.324;2023-04-22T11:58:24;25.20;53.60
27940;DHT22;15275;51.716;14.324;2023-04-22T12:00:53;25.20;52.50
27940;DHT22;15275;51.716;14.324;2023-04-22T12:03:20;25.30;53.80
27940;DHT22;15275;51.716;14.324;2023-04-22T12:08:20;25.30;52.70
27940;DHT22;15275;51.716;14.324;2023-04-22T12:10:55;25.40;53.20
27940;DHT22;15275;51.716;14.324;2023-04-22T12:13:27;25.40;52.90
27940;DHT22;15275;51.716;14.324;2023-04-22T12:16:02;25.40;53.10
27940;DHT22;15275;51.716;14.324;2023-04-22T12:18:36;25.50;52.20
27940;DHT22;15275;51.716;14.324;2023-04-22T12:23:29;25.50;53.30
27940;DHT22;15275;51.716;14.324;2023-04-22T12:25:56;25.50;53.70
27940;DHT22;15275;51.716;14.324;2023-04-22T12:28:22;25.60;53.30
27940;DHT22;15275;51.716;14.324;2023-04-22T12:30:48;25.60;53.00
27940;DHT22;15275;51.716;14.324;2023-04-22T12:33:13;25.60;53.80
27940;DHT22;15275;51.716;14.324;2023-04-22T12:35:39;25.70;52.80
27940;DHT22;15275;51.716;14.324;2023-04-22T12:38:05;25.70;52.30
27940;DHT22;15275;51.716;14.324;2023-04-22T12:40:31;25.70;52.60
27940;DHT22;15275;51.716;14.324;2023-04-22T12:42:57;25.70;52.30
27940;DHT22;15275;51.716;14.324;2023-04-22T12:45:23;25.70;52.40
27940;DHT22;15275;51.716;14.324;2023-04-22T12:47:50;25.70;51.80
27940;DHT22;15275;51.716;14.324;2023-04-22T12:50:18;25.70;51.80
27940;DHT22;15275;51.716;14.324;2023-04-22T12:52:44;25.80;51.30
27940;DHT22;15275;51.716;14.324;2023-04-22T12:55:10;25.80;52.00
27940;DHT22;15275;51.716;14.324;2023-04-22T12:57:36;25.80;52.60
27940;DHT22;15275;51.716;14.324;2023-04-22T13:00:03;25.90;52.10
27940;DHT22;15275;51.716;14.324;2023-04-22T13:02:31;25.90;52.10
27940;DHT22;15275;51.716;14.324;2023-04-22T13:04:57;25.90;52.30
27940;DHT22;15275;51.716;14.324;2023-04-22T13:07:23;25.90;52.40
27940;DHT22;15275;51.716;14.324;2023-04-22T13:09:49;26.00;52.20
27940;DHT22;15275;51.716;14.324;2023-04-22T13:12:15;26.00;51.90
27940;DHT22;15275;51.716;14.324;2023-04-22T13:14:41;26.00;51.80
27940;DHT22;15275;51.716;14.324;2023-04-22T13:17:07;26.00;51.80
27940;DHT22;15275;51.716;14.324;2023-04-22T13:19:33;26.00;51.40
27940;DHT22;15275;51.716;14.324;2023-04-22T13:21:59;26.10;50.70
27940;DHT22;15275;51.716;14.324;2023-04-22T13:24:25;26.10;51.10
27940;DHT22;15275;51.716;14.324;2023-04-22T13:26:51;26.10;50.70
27940;DHT22;15275;51.716;14.324;2023-04-22T13:29:17;26.10;50.30
27940;DHT22;15275;51.716;14.324;2023-04-22T13:31:43;26.10;51.20
27940;DHT22;15275;51.716;14.324;2023-04-22T13:34:10;26.10;50.80
27940;DHT22;15275;51.716;14.324;2023-04-22T13:36:36;26.10;50.70
27940;DHT22;15275;51.716;14.324;2023-04-22T13:39:03;26.10;51.30
27940;DHT22;15275;51.716;14.324;2023-04-22T13:41:29;26.10;50.50
27940;DHT22;15275;51.716;14.324;2023-04-22T13:43:56;26.10;51.10
27940;DHT22;15275;51.716;14.324;2023-04-22T13:46:24;26.10;50.50
27940;DHT22;15275;51.716;14.324;2023-04-22T13:48:50;26.10;50.90
27940;DHT22;15275;51.716;14.324;2023-04-22T13:51:15;26.10;50.70
27940;DHT22;15275;51.716;14.324;2023-04-22T13:53:41;26.10;50.50
27940;DHT22;15275;51.716;14.324;2023-04-22T13:56:07;26.10;49.80
27940;DHT22;15275;51.716;14.324;2023-04-22T13:58:33;26.10;50.60
27940;DHT22;15275;51.716;14.324;2023-04-22T14:00:59;26.10;50.50
27940;DHT22;15275;51.716;14.324;2023-04-22T14:03:25;26.10;50.20
27940;DHT22;15275;51.716;14.324;2023-04-22T14:05:52;26.10;49.80
27940;DHT22;15275;51.716;14.324;2023-04-22T14:08:18;26.20;50.40
27940;DHT22;15275;51.716;14.324;2023-04-22T14:10:44;26.20;50.50
27940;DHT22;15275;51.716;14.324;2023-04-22T14:13:10;26.20;50.30
27940;DHT22;15275;51.716;14.324;2023-04-22T14:15:37;26.20;49.40
27940;DHT22;15275;51.716;14.324;2023-04-22T14:18:03;26.20;49.00
27940;DHT22;15275;51.716;14.324;2023-04-22T14:20:29;26.10;48.70
27940;DHT22;15275;51.716;14.324;2023-04-22T14:22:55;26.10;49.30
27940;DHT22;15275;51.716;14.324;2023-04-22T14:25:21;26.00;49.50
27940;DHT22;15275;51.716;14.324;2023-04-22T14:27:47;26.00;49.60
27940;DHT22;15275;51.716;14.324;2023-04-22T14:30:14;26.00;49.10
27940;DHT22;15275;51.716;14.324;2023-04-22T14:32:40;25.90;49.50
27940;DHT22;15275;51.716;14.324;2023-04-22T14:35:06;25.90;49.10
27940;DHT22;15275;51.716;14.324;2023-04-22T14:37:33;25.90;49.60
27940;DHT22;15275;51.716;14.324;2023-04-22T14:40:00;25.90;49.70
27940;DHT22;15275;51.716;14.324;2023-04-22T14:42:26;25.90;49.60
27940;DHT22;15275;51.716;14.324;2023-04-22T14:44:52;25.90;49.20
27940;DHT22;15275;51.716;14.324;2023-04-22T14:47:18;25.90;49.70
27940;DHT22;15275;51.716;14.324;2023-04-22T14:49:44;25.90;49.20
27940;DHT22;15275;51.716;14.324;2023-04-22T14:52:10;25.90;49.60
27940;DHT22;15275;51.716;14.324;2023-04-22T14:54:36;25.90;50.00
27940;DHT22;15275;51.716;14.324;2023-04-22T14:57:02;25.90;49.80
27940;DHT22;15275;51.716;14.324;2023-04-22T14:59:28;26.00;49.50
27940;DHT22;15275;51.716;14.324;2023-04-22T15:01:55;26.00;50.10
27940;DHT22;15275;51.716;14.324;2023-04-22T15:04:21;26.00;49.10
27940;DHT22;15275;51.716;14.324;2023-04-22T15:06:48;25.90;48.80
27940;DHT22;15275;51.716;14.324;2023-04-22T15:09:14;25.90;49.80
27940;DHT22;15275;51.716;14.324;2023-04-22T15:11:40;25.90;50.00
27940;DHT22;15275;51.716;14.324;2023-04-22T15:14:05;25.90;49.90
27940;DHT22;15275;51.716;14.324;2023-04-22T15:16:31;25.90;49.60
27940;DHT22;15275;51.716;14.324;2023-04-22T15:18:58;25.90;49.60
27940;DHT22;15275;51.716;14.324;2023-04-22T15:21:24;25.90;50.20
27940;DHT22;15275;51.716;14.324;2023-04-22T15:23:50;25.90;50.30
27940;DHT22;15275;51.716;14.324;2023-04-22T15:26:16;25.90;50.00
27940;DHT22;15275;51.716;14.324;2023-04-22T15:28:42;25.90;49.20
27940;DHT22;15275;51.716;14.324;2023-04-22T15:31:08;25.90;49.70